Hot Springs, SD (57747)

8:57 PM MDT on August 20, 2014 (GMT -0600)
Chadron Municipal | Change Station
CLOSE
Current Station
Airport
Location: Chadron,
Elevation: 3297 ft
Nearby Weather Stations

Elev 3297 ft 42.84 °N, 103.10 °W | Updated 1 hour ago

Clear
Clear
79 °F
Feels Like 79 °F
N
5
Wind Variable Wind from West

Today
High -- | Low -- °F
--% Chance of Precip.
Yesterday
High -- | Low -- °F
Precip. -- in
6:04 AM 7:49 PM
Waning Crescent, 17% visible
Pressure 29.68 in
Visibility 10.0 miles
Clouds Clear
Dew Point 49 °F
Humidity 35%
Rainfall 0.00 in
Snow Depth Not available.
UV 0 out of 12
Pollen 9.30 out of 12
Air Quality Not available.
Flu Activity Not available.
METAR KCDR 210153Z AUTO 27004KT 10SM CLR 26/09 A2977 RMK AO2 SLP051 T02610094

More Conditions Fewer Conditions

Pressure 29.68 in
Visibility 10.0 miles
Clouds Clear
Dew Point 49 °F
Humidity 35%
Rainfall 0.00 in
Snow Depth Not available.
UV 0 out of 12
Pollen 9.30 out of 12
Air Quality Not available.
Flu Activity Not available.
METAR KCDR 210153Z AUTO 27004KT 10SM CLR 26/09 A2977 RMK AO2 SLP051 T02610094

More Conditions Fewer Conditions

10-Day Weather Forecast

Almanac

Astronomy

Aug. 20, 2014 Rise Set
Actual Time 6:04 AM MDT 7:49 PM MDT
Civil Twilight 5:34 AM MDT 8:19 PM MDT
Nautical Twilight 4:57 AM MDT 8:56 PM MDT
Astronomical Twilight 4:17 AM MDT 9:36 PM MDT
Moon 1:43 AM MDT (8/20) 4:38 PM MDT (8/20)
Length of Visible Light 14h 45m
Length of Day
13h 44m
Tomorrow will be 2m 44s shorter.
Waning Crescent, 17% of the Moon is Illuminated
Today
Waning Crescent
Aug 25
New
Sep 2
First Quarter
Sep 8
Full
Sep 15
Last Quarter

Today's Extremes

State Highs State Lows

Community

WunderPhotos

Upload Photos

1,745,839 photos uploaded!

WunderBlogs® & News

By Dr. Jeff Masters
Director of Meteorology, Weather Underground
By Kari Strenfel
Meteorologist, Weather Underground
By Christopher C. Burt
Weather Historian, Weather Underground
August 20, 2014
August 20, 2014
August 20, 2014

Nearby

Snow Depth

Station Depth Elevation
Blind Park 0 in 6890 ft

Earthquake Activity

City Distance Mag. Time & Date
No recent earthquake activity has been reported nearby.
Minimum magnitude displayed is 2.5.

Coastal Water Temperatures

Place Temperature
No Stations Reporting

Nearby Weather Stations